createdAt,value
2023-03-02T00:00:16.170Z,4.68
2023-03-02T00:02:22.290Z,4.43
2023-03-02T00:04:31.593Z,4.57
2023-03-02T00:06:35.623Z,4.47
2023-03-02T00:08:38.521Z,4.63
2023-03-02T00:10:39.902Z,4.20
2023-03-02T00:12:41.429Z,4.57
2023-03-02T00:14:43.062Z,4.40
2023-03-02T00:16:44.528Z,4.25
2023-03-02T00:18:45.904Z,4.45
2023-03-02T00:20:47.315Z,4.13
2023-03-02T00:22:49.018Z,5.13
2023-03-02T00:24:50.471Z,3.90
2023-03-02T00:26:51.941Z,4.60
2023-03-02T00:28:53.300Z,4.43
2023-03-02T00:30:54.691Z,4.22
2023-03-02T00:32:56.393Z,4.45
2023-03-02T00:34:58.627Z,4.22
2023-03-02T00:37:00.015Z,4.22
2023-03-02T00:39:01.494Z,4.63
2023-03-02T00:41:03.534Z,4.25
2023-03-02T00:43:04.955Z,4.38
2023-03-02T00:45:07.360Z,4.95
2023-03-02T00:47:08.804Z,4.50
2023-03-02T00:49:10.968Z,4.28
2023-03-02T00:51:13.268Z,4.50
2023-03-02T00:53:14.677Z,4.43
2023-03-02T00:55:16.179Z,4.03
2023-03-02T00:57:17.626Z,4.43
2023-03-02T00:59:27.771Z,4.78
2023-03-02T01:01:29.217Z,4.65
2023-03-02T01:03:30.737Z,4.65
2023-03-02T01:05:36.714Z,4.28
2023-03-02T01:07:38.128Z,4.32
2023-03-02T01:09:41.511Z,4.78
2023-03-02T01:11:42.883Z,5.10
2023-03-02T01:13:44.931Z,4.28
2023-03-02T01:15:46.990Z,5.15
2023-03-02T01:17:48.438Z,4.90
2023-03-02T01:19:49.859Z,4.45
2023-03-02T01:21:51.237Z,4.78
2023-03-02T01:23:52.635Z,4.28
2023-03-02T01:25:54.002Z,4.32
2023-03-02T01:27:55.379Z,5.05
2023-03-02T01:29:56.819Z,4.60
2023-03-02T01:31:58.505Z,4.00
2023-03-02T01:33:59.970Z,4.47
2023-03-02T01:36:01.486Z,4.45
2023-03-02T01:38:02.932Z,4.15
2023-03-02T01:43:20.141Z,4.15
2023-03-02T01:45:55.519Z,4.38
2023-03-02T01:47:57.000Z,4.68
2023-03-02T01:50:02.775Z,4.53
2023-03-02T01:52:04.485Z,4.03
2023-03-02T01:54:10.528Z,4.00
2023-03-02T01:56:17.321Z,4.40
2023-03-02T01:58:19.765Z,4.32
2023-03-02T02:00:28.999Z,4.28
2023-03-02T02:02:30.509Z,4.93
2023-03-02T02:04:34.382Z,3.72
2023-03-02T02:06:43.107Z,3.67
2023-03-02T02:08:46.110Z,3.97
2023-03-02T02:10:47.591Z,5.00
2023-03-02T02:12:48.959Z,4.38
2023-03-02T02:14:50.546Z,4.50
2023-03-02T02:16:52.497Z,3.97
2023-03-02T02:18:54.905Z,4.25
2023-03-02T02:20:56.825Z,5.00
2023-03-02T02:23:03.920Z,4.43
2023-03-02T02:25:17.765Z,4.72
2023-03-02T02:27:19.164Z,4.40
2023-03-02T02:29:33.309Z,4.10
2023-03-02T02:31:48.695Z,3.80
2023-03-02T02:33:55.092Z,4.30
2023-03-02T02:38:30.759Z,4.05
2023-03-02T02:41:01.882Z,4.32
2023-03-02T02:43:04.074Z,3.78
2023-03-02T02:45:16.199Z,4.03
2023-03-02T02:47:21.525Z,3.72
2023-03-02T02:49:36.020Z,4.13
2023-03-02T02:51:37.486Z,4.18
2023-03-02T02:53:58.554Z,3.60
2023-03-02T02:56:00.718Z,3.15
2023-03-02T02:58:09.931Z,3.75
2023-03-02T03:00:19.245Z,3.83
2023-03-02T03:02:26.547Z,3.85
2023-03-02T03:06:42.149Z,3.28
2023-03-02T03:08:43.723Z,4.13
2023-03-02T03:10:45.593Z,3.75
2023-03-02T03:12:47.483Z,3.58
2023-03-02T03:14:49.375Z,3.58
2023-03-02T03:16:51.784Z,4.13
2023-03-02T03:18:54.604Z,3.38
2023-03-02T03:20:56.013Z,3.97
2023-03-02T03:22:59.678Z,3.40
2023-03-02T03:25:01.165Z,4.63
2023-03-02T03:27:05.433Z,4.10
2023-03-02T03:29:07.725Z,3.97
2023-03-02T03:31:09.162Z,4.35
2023-03-02T03:33:13.723Z,4.38
2023-03-02T03:35:15.157Z,3.88
2023-03-02T03:37:18.969Z,3.97
2023-03-02T03:39:20.682Z,3.67
2023-03-02T03:41:22.724Z,3.80
2023-03-02T03:43:24.181Z,3.60
2023-03-02T03:45:25.665Z,3.92
2023-03-02T03:47:27.105Z,3.60
2023-03-02T03:49:28.915Z,3.92
2023-03-02T03:51:35.287Z,3.47
2023-03-02T03:53:37.036Z,3.90
2023-03-02T03:55:38.419Z,4.18
2023-03-02T03:57:40.162Z,4.63
2023-03-02T03:59:41.533Z,3.78
2023-03-02T04:01:46.747Z,4.07
2023-03-02T04:03:48.202Z,3.97
2023-03-02T04:05:49.686Z,3.72
2023-03-02T04:07:51.114Z,3.45
2023-03-02T04:10:03.249Z,3.63
2023-03-02T04:12:06.096Z,4.15
2023-03-02T04:14:08.401Z,3.55
2023-03-02T04:16:09.859Z,3.90
2023-03-02T04:18:11.302Z,3.53
2023-03-02T04:20:17.267Z,4.78
2023-03-02T04:22:19.994Z,3.85
2023-03-02T04:24:23.373Z,3.53
2023-03-02T04:26:26.822Z,3.67
2023-03-02T04:28:28.261Z,3.58
2023-03-02T04:30:29.744Z,3.60
2023-03-02T04:32:31.163Z,3.47
2023-03-02T04:34:32.775Z,3.92
2023-03-02T04:36:36.714Z,4.18
2023-03-02T04:38:38.370Z,3.28
2023-03-02T04:40:39.827Z,3.97
2023-03-02T04:42:41.791Z,3.70
2023-03-02T04:44:43.194Z,4.35
2023-03-02T04:46:46.226Z,3.60
2023-03-02T04:48:47.860Z,3.13
2023-03-02T04:50:49.605Z,3.33
2023-03-02T04:52:51.027Z,3.92
2023-03-02T04:54:52.508Z,3.83
2023-03-02T04:56:55.047Z,2.92
2023-03-02T04:58:56.917Z,3.75
2023-03-02T05:01:02.286Z,3.17
2023-03-02T05:03:04.571Z,3.53
2023-03-02T05:05:06.256Z,3.72
2023-03-02T05:07:08.263Z,3.63
2023-03-02T05:09:10.029Z,3.38
2023-03-02T05:11:21.834Z,3.40
2023-03-02T05:13:23.208Z,3.47
2023-03-02T05:15:27.749Z,3.55
2023-03-02T05:17:29.148Z,3.65
2023-03-02T05:19:30.571Z,3.25
2023-03-02T05:21:32.101Z,4.22
2023-03-02T05:23:34.589Z,4.07
2023-03-02T05:25:37.470Z,3.80
2023-03-02T05:27:38.976Z,3.42
2023-03-02T05:29:40.349Z,3.63
2023-03-02T05:31:44.488Z,3.58
2023-03-02T05:33:46.544Z,3.90
2023-03-02T05:35:48.604Z,3.53
2023-03-02T05:37:50.622Z,4.03
2023-03-02T05:39:52.034Z,3.58
2023-03-02T05:41:53.643Z,3.78
2023-03-02T05:43:55.114Z,4.13
2023-03-02T05:46:00.329Z,3.53
2023-03-02T05:48:02.576Z,3.55
2023-03-02T05:50:04.346Z,4.00
2023-03-02T05:52:05.906Z,3.10
2023-03-02T05:56:32.962Z,3.22
2023-03-02T05:58:34.725Z,3.72
2023-03-02T06:00:36.326Z,4.03
2023-03-02T06:02:40.793Z,3.80
2023-03-02T06:04:43.218Z,3.65
2023-03-02T06:06:44.620Z,3.35
2023-03-02T06:08:46.157Z,3.17
2023-03-02T06:10:48.077Z,3.90
2023-03-02T06:12:49.504Z,3.97
2023-03-02T06:14:50.989Z,3.25
2023-03-02T06:16:52.569Z,3.40
2023-03-02T06:18:54.014Z,4.38
2023-03-02T06:20:55.493Z,3.83
2023-03-02T06:22:56.916Z,3.42
2023-03-02T06:24:58.328Z,3.67
2023-03-02T06:27:00.021Z,3.33
2023-03-02T06:29:01.422Z,3.45
2023-03-02T06:31:02.822Z,4.30
2023-03-02T06:33:04.271Z,3.88
2023-03-02T06:35:06.643Z,3.90
2023-03-02T06:37:08.155Z,3.08
2023-03-02T06:39:15.821Z,3.70
2023-03-02T06:41:17.299Z,3.55
2023-03-02T06:43:18.690Z,3.60
2023-03-02T06:45:20.155Z,3.95
2023-03-02T06:47:22.767Z,3.80
2023-03-02T06:49:24.824Z,3.95
2023-03-02T06:51:26.236Z,3.78
2023-03-02T06:53:27.649Z,2.92
2023-03-02T06:55:29.091Z,3.33
2023-03-02T06:57:33.904Z,3.58
2023-03-02T06:59:35.952Z,4.25
2023-03-02T07:01:37.414Z,3.78
2023-03-02T07:03:38.984Z,3.85
2023-03-02T07:05:40.402Z,3.92
2023-03-02T07:07:41.850Z,3.40
2023-03-02T07:09:43.246Z,4.07
2023-03-02T07:11:44.970Z,3.75
2023-03-02T07:13:46.445Z,3.90
2023-03-02T07:15:48.031Z,3.85
2023-03-02T07:17:49.453Z,3.75
2023-03-02T07:19:50.820Z,4.35
2023-03-02T07:21:52.250Z,4.03
2023-03-02T07:23:53.671Z,3.70
2023-03-02T07:25:55.764Z,4.38
2023-03-02T07:27:57.479Z,4.00
2023-03-02T07:29:58.966Z,4.20
2023-03-02T07:32:00.518Z,3.83
2023-03-02T07:34:01.997Z,3.65
2023-03-02T07:36:03.917Z,3.38
2023-03-02T07:38:05.618Z,3.95
2023-03-02T07:40:07.721Z,4.45
2023-03-02T07:42:12.396Z,3.97
2023-03-02T07:44:13.841Z,4.10
2023-03-02T07:46:15.350Z,3.95
2023-03-02T07:48:16.877Z,3.42
2023-03-02T07:50:18.313Z,3.80
2023-03-02T07:52:19.698Z,4.05
2023-03-02T07:54:21.199Z,4.43
2023-03-02T07:56:22.601Z,3.92
2023-03-02T07:58:24.277Z,3.92
2023-03-02T08:00:25.810Z,4.03
2023-03-02T08:02:27.295Z,4.38
2023-03-02T08:04:28.685Z,4.75
2023-03-02T08:06:30.375Z,4.03
2023-03-02T08:08:31.779Z,3.97
2023-03-02T08:10:36.759Z,4.32
2023-03-02T08:12:38.158Z,4.13
2023-03-02T08:14:40.110Z,3.92
2023-03-02T08:16:41.679Z,4.75
2023-03-02T08:18:43.812Z,4.05
2023-03-02T08:20:45.221Z,4.03
2023-03-02T08:22:46.621Z,4.10
2023-03-02T08:24:48.070Z,3.90
2023-03-02T08:26:49.499Z,3.78
2023-03-02T08:28:51.186Z,3.92
2023-03-02T08:30:59.377Z,4.32
2023-03-02T08:33:04.466Z,4.25
2023-03-02T08:35:08.258Z,3.83
2023-03-02T08:37:10.799Z,3.75
2023-03-02T08:39:12.262Z,3.70
2023-03-02T08:41:17.160Z,4.00
2023-03-02T08:43:19.945Z,4.57
2023-03-02T08:45:21.325Z,4.25
2023-03-02T08:47:22.754Z,4.32
2023-03-02T08:49:24.185Z,4.38
2023-03-02T08:51:26.481Z,4.07
2023-03-02T08:53:30.327Z,4.05
2023-03-02T08:55:35.552Z,4.13
2023-03-02T08:57:37.046Z,4.22
2023-03-02T08:59:38.473Z,4.13
2023-03-02T09:01:41.091Z,4.18
2023-03-02T09:03:42.542Z,3.80
2023-03-02T09:05:44.276Z,3.80
2023-03-02T09:07:45.701Z,3.85
2023-03-02T09:09:47.075Z,3.70
2023-03-02T09:11:48.551Z,4.35
2023-03-02T09:13:50.010Z,4.60
2023-03-02T09:15:51.366Z,4.28
2023-03-02T09:17:53.201Z,3.75
2023-03-02T09:19:54.622Z,4.35
2023-03-02T09:21:55.990Z,4.05
2023-03-02T09:23:58.354Z,3.72
2023-03-02T09:25:59.903Z,3.88
2023-03-02T09:28:01.318Z,3.92
2023-03-02T09:30:02.791Z,4.07
2023-03-02T09:32:04.423Z,4.65
2023-03-02T09:34:06.229Z,4.05
2023-03-02T09:36:09.891Z,4.25
2023-03-02T09:38:15.889Z,3.75
2023-03-02T09:40:28.900Z,4.50
2023-03-02T09:42:54.537Z,4.40
2023-03-02T09:45:14.298Z,4.13
2023-03-02T09:47:35.398Z,3.38
2023-03-02T09:49:46.670Z,3.88
2023-03-02T09:52:16.448Z,4.13
2023-03-02T09:54:24.227Z,4.25
2023-03-02T09:56:26.752Z,3.72
2023-03-02T09:58:35.038Z,4.25
2023-03-02T10:00:38.331Z,4.10
2023-03-02T10:02:50.821Z,4.20
2023-03-02T10:04:59.520Z,5.10
2023-03-02T10:07:27.093Z,4.07
2023-03-02T10:09:28.775Z,4.13
2023-03-02T10:11:35.919Z,4.03
2023-03-02T10:15:58.275Z,3.72
2023-03-02T10:18:08.925Z,3.70
2023-03-02T10:20:18.902Z,4.22
2023-03-02T10:22:29.850Z,4.38
2023-03-02T10:24:49.398Z,3.42
2023-03-02T10:26:54.309Z,4.47
2023-03-02T10:29:33.760Z,4.15
2023-03-02T10:31:40.311Z,4.38
2023-03-02T10:33:44.721Z,4.35
2023-03-02T10:35:52.608Z,4.28
2023-03-02T10:38:21.825Z,4.05
2023-03-02T10:40:47.336Z,3.85
2023-03-02T10:42:49.053Z,3.80
2023-03-02T10:44:52.765Z,4.00
2023-03-02T10:46:54.577Z,3.50
2023-03-02T10:49:01.190Z,4.28
2023-03-02T10:51:03.531Z,3.72
2023-03-02T10:53:16.947Z,3.65
2023-03-02T10:57:29.031Z,4.20
2023-03-02T10:59:46.390Z,4.20
2023-03-02T11:01:59.513Z,4.07
2023-03-02T11:04:02.375Z,3.90
2023-03-02T11:06:19.899Z,4.15
2023-03-02T11:08:27.452Z,3.80
2023-03-02T11:10:39.116Z,4.00
2023-03-02T11:12:46.475Z,4.32
2023-03-02T11:14:47.874Z,3.60
2023-03-02T11:16:52.334Z,3.50
2023-03-02T11:19:05.926Z,3.90
2023-03-02T11:21:13.816Z,3.60
2023-03-02T11:23:34.908Z,3.45
2023-03-02T11:25:40.303Z,3.85
2023-03-02T11:27:44.068Z,3.40
2023-03-02T11:29:45.417Z,3.70
2023-03-02T11:31:58.827Z,3.35
2023-03-02T11:34:18.306Z,3.90
2023-03-02T11:38:30.285Z,3.45
2023-03-02T11:40:39.675Z,3.50
2023-03-02T11:42:44.880Z,3.53
2023-03-02T11:44:48.484Z,3.65
2023-03-02T11:46:54.035Z,3.30
2023-03-02T11:48:59.811Z,3.83
2023-03-02T11:51:13.492Z,3.60
2023-03-02T11:53:19.275Z,3.88
2023-03-02T11:55:23.445Z,3.80
2023-03-02T11:57:33.232Z,3.17
2023-03-02T11:59:35.942Z,4.13
2023-03-02T12:01:40.321Z,4.43
2023-03-02T12:03:42.505Z,3.67
2023-03-02T12:05:47.195Z,3.63
2023-03-02T12:07:59.047Z,3.50
2023-03-02T12:10:28.386Z,3.08
2023-03-02T12:12:36.299Z,3.00
2023-03-02T12:14:41.620Z,3.70
2023-03-02T12:16:43.717Z,3.97
2023-03-02T12:18:49.656Z,3.05
2023-03-02T12:21:09.172Z,3.28
2023-03-02T12:23:24.439Z,3.42
2023-03-02T12:25:36.167Z,3.10
2023-03-02T12:27:41.628Z,2.90
2023-03-02T12:29:46.124Z,2.83
2023-03-02T12:31:55.912Z,2.95
2023-03-02T12:33:58.228Z,3.03
2023-03-02T12:36:10.536Z,3.15
2023-03-02T12:38:21.229Z,2.35
2023-03-02T12:40:33.683Z,2.58
2023-03-02T12:42:44.229Z,2.42
2023-03-02T12:44:56.813Z,2.78
2023-03-02T12:46:59.150Z,2.45
2023-03-02T12:49:19.220Z,2.60
2023-03-02T12:51:23.544Z,2.40
2023-03-02T12:53:25.088Z,2.30
2023-03-02T12:55:27.117Z,2.70
2023-03-02T12:57:28.565Z,2.83
2023-03-02T12:59:30.112Z,2.42
2023-03-02T13:01:34.321Z,2.60
2023-03-02T13:03:46.125Z,2.38
2023-03-02T13:05:47.700Z,2.50
2023-03-02T13:07:58.627Z,2.50
2023-03-02T13:10:00.523Z,2.58
2023-03-02T13:12:02.059Z,2.38
2023-03-02T13:14:19.962Z,2.78
2023-03-02T13:16:28.113Z,2.35
2023-03-02T13:18:36.418Z,2.70
2023-03-02T13:20:38.275Z,2.88
2023-03-02T13:22:40.338Z,2.25
2023-03-02T13:24:51.032Z,2.22
2023-03-02T13:26:57.694Z,2.60
2023-03-02T13:29:19.105Z,2.47
2023-03-02T13:31:23.677Z,2.20
2023-03-02T13:33:26.980Z,2.17
2023-03-02T13:35:31.317Z,2.58
2023-03-02T13:37:39.103Z,2.72
2023-03-02T13:39:40.682Z,2.80
2023-03-02T13:41:53.929Z,2.35
2023-03-02T13:45:59.853Z,2.05
2023-03-02T13:48:15.658Z,2.25
2023-03-02T13:50:22.547Z,2.45
2023-03-02T13:54:36.034Z,2.40
2023-03-02T13:56:43.936Z,2.63
2023-03-02T13:58:45.968Z,2.75
2023-03-02T14:00:48.415Z,2.70
2023-03-02T14:02:50.601Z,2.88
2023-03-02T14:04:52.767Z,3.00
2023-03-02T14:06:54.905Z,3.28
2023-03-02T14:08:56.305Z,2.90
2023-03-02T14:11:00.801Z,3.15
2023-03-02T14:13:07.401Z,3.00
2023-03-02T14:15:14.135Z,2.63
2023-03-02T14:17:21.628Z,3.05
2023-03-02T14:19:23.058Z,2.90
2023-03-02T14:21:26.031Z,2.80
2023-03-02T14:23:27.627Z,2.80
2023-03-02T14:25:29.167Z,2.42
2023-03-02T14:27:31.357Z,2.58
2023-03-02T14:29:34.613Z,2.90
2023-03-02T14:31:36.366Z,2.75
2023-03-02T14:33:38.016Z,3.10
2023-03-02T14:35:39.423Z,2.83
2023-03-02T14:37:43.902Z,2.42
2023-03-02T14:39:55.334Z,2.60
2023-03-02T14:41:57.270Z,2.25
2023-03-02T14:43:58.892Z,2.50
2023-03-02T14:46:00.362Z,2.83
2023-03-02T14:48:02.145Z,2.70
2023-03-02T14:50:05.338Z,2.83
2023-03-02T14:52:14.530Z,2.63
2023-03-02T14:54:19.808Z,2.47
2023-03-02T14:56:25.055Z,2.67
2023-03-02T14:58:33.293Z,2.50
2023-03-02T15:00:34.756Z,2.85
2023-03-02T15:02:36.406Z,2.50
2023-03-02T15:04:37.890Z,2.58
2023-03-02T15:06:42.769Z,2.97
2023-03-02T15:08:44.132Z,2.83
2023-03-02T15:10:46.870Z,3.20
2023-03-02T15:12:48.524Z,3.05
2023-03-02T15:14:49.956Z,3.47
2023-03-02T15:16:51.396Z,3.53
2023-03-02T15:18:53.647Z,3.90
2023-03-02T15:20:55.010Z,3.28
2023-03-02T15:22:56.846Z,3.42
2023-03-02T15:24:58.253Z,3.50
2023-03-02T15:26:59.861Z,3.35
2023-03-02T15:29:01.274Z,3.70
2023-03-02T15:31:14.205Z,4.13
2023-03-02T15:33:15.669Z,3.42
2023-03-02T15:35:17.577Z,3.33
2023-03-02T15:37:18.929Z,3.58
2023-03-02T15:39:20.315Z,3.60
2023-03-02T15:41:21.881Z,3.40
2023-03-02T15:43:24.191Z,3.83
2023-03-02T15:45:26.696Z,3.80
2023-03-02T15:47:28.112Z,4.07
2023-03-02T15:49:32.098Z,3.35
2023-03-02T15:51:33.459Z,3.22
2023-03-02T15:53:38.263Z,4.10
2023-03-02T15:55:41.563Z,4.00
2023-03-02T15:57:43.035Z,3.80
2023-03-02T15:59:44.632Z,4.32
2023-03-02T16:01:46.065Z,4.70
2023-03-02T16:03:47.475Z,5.20
2023-03-02T16:05:48.999Z,5.70
2023-03-02T16:07:50.492Z,6.53
2023-03-02T16:09:51.874Z,7.00
2023-03-02T16:11:53.292Z,7.28
2023-03-02T16:13:54.691Z,9.43
2023-03-02T16:15:56.878Z,7.25
2023-03-02T16:17:58.261Z,7.70
2023-03-02T16:19:59.638Z,7.60
2023-03-02T16:22:01.044Z,7.40
2023-03-02T16:24:05.387Z,7.78
2023-03-02T16:26:09.482Z,7.47
2023-03-02T16:28:11.994Z,7.45
2023-03-02T16:30:15.377Z,7.05
2023-03-02T16:32:17.052Z,7.03
2023-03-02T16:34:18.564Z,7.57
2023-03-02T16:36:20.197Z,7.30
2023-03-02T16:38:21.605Z,8.68
2023-03-02T16:40:23.789Z,7.65
2023-03-02T16:42:25.256Z,8.23
2023-03-02T16:44:26.685Z,8.38
2023-03-02T16:46:31.262Z,8.45
2023-03-02T16:48:32.661Z,7.72
2023-03-02T16:50:34.048Z,8.07
2023-03-02T16:52:36.057Z,7.70
2023-03-02T16:54:37.894Z,8.10
2023-03-02T16:56:41.209Z,7.93
2023-03-02T16:58:43.079Z,8.27
2023-03-02T17:00:44.686Z,7.63
2023-03-02T17:02:46.559Z,7.75
2023-03-02T17:04:48.979Z,7.95
2023-03-02T17:07:05.428Z,8.57
2023-03-02T17:09:06.880Z,8.40
2023-03-02T17:11:08.845Z,8.00
2023-03-02T17:13:12.102Z,8.80
2023-03-02T17:15:14.271Z,8.57
2023-03-02T17:17:15.776Z,9.18
2023-03-02T17:19:17.166Z,8.57
2023-03-02T17:21:18.564Z,9.23
2023-03-02T17:23:20.059Z,8.73
2023-03-02T17:25:21.545Z,13.18
2023-03-02T17:27:25.981Z,12.15
2023-03-02T17:29:27.518Z,10.70
2023-03-02T17:31:28.949Z,10.45
2023-03-02T17:33:30.381Z,10.60
2023-03-02T17:35:31.827Z,9.52
2023-03-02T17:37:33.458Z,11.48
2023-03-02T17:39:36.220Z,10.02
2023-03-02T17:41:38.241Z,11.63
2023-03-02T17:43:41.664Z,11.02
2023-03-02T17:45:43.160Z,12.48
2023-03-02T17:47:44.945Z,12.38
2023-03-02T17:49:46.402Z,11.48
2023-03-02T17:51:47.853Z,11.45
2023-03-02T17:53:50.714Z,11.55
2023-03-02T17:55:55.032Z,13.10
2023-03-02T17:57:56.620Z,11.18
2023-03-02T17:59:58.034Z,11.45
2023-03-02T18:01:59.499Z,11.05
2023-03-02T18:04:01.064Z,10.63
2023-03-02T18:06:02.598Z,10.75
2023-03-02T18:08:04.279Z,12.93
2023-03-02T18:10:06.992Z,11.43
2023-03-02T18:12:08.858Z,10.45
2023-03-02T18:14:15.256Z,10.95
2023-03-02T18:16:16.794Z,11.43
2023-03-02T18:18:18.197Z,12.32
2023-03-02T18:20:19.630Z,11.00
2023-03-02T18:22:22.033Z,11.38
2023-03-02T18:24:23.452Z,11.50
2023-03-02T18:26:24.912Z,11.95
2023-03-02T18:28:26.330Z,11.30
2023-03-02T18:30:27.803Z,10.18
2023-03-02T18:32:29.285Z,12.23
2023-03-02T18:34:30.785Z,11.50
2023-03-02T18:36:32.262Z,12.30
2023-03-02T18:38:34.956Z,11.65
2023-03-02T18:40:36.434Z,12.18
2023-03-02T18:42:38.108Z,12.00
2023-03-02T18:44:39.535Z,11.57
2023-03-02T18:46:41.080Z,11.70
2023-03-02T18:48:42.580Z,11.85
2023-03-02T18:50:44.121Z,13.00
2023-03-02T18:52:45.543Z,11.43
2023-03-02T18:54:47.410Z,13.60
2023-03-02T18:56:48.874Z,12.15
2023-03-02T18:58:51.395Z,11.82
2023-03-02T19:00:54.071Z,12.20
2023-03-02T19:02:56.677Z,12.38
2023-03-02T19:04:58.355Z,11.85
2023-03-02T19:07:00.775Z,12.95
2023-03-02T19:09:02.282Z,11.95
2023-03-02T19:11:05.166Z,13.10
2023-03-02T19:13:09.146Z,12.85
2023-03-02T19:17:42.546Z,13.85
2023-03-02T19:19:43.991Z,13.85
2023-03-02T19:21:45.483Z,13.57
2023-03-02T19:23:47.529Z,13.40
2023-03-02T19:25:49.077Z,13.30
2023-03-02T19:27:50.448Z,13.85
2023-03-02T19:29:51.848Z,14.13
2023-03-02T19:31:53.706Z,13.80
2023-03-02T19:33:55.408Z,14.30
2023-03-02T19:35:56.916Z,13.85
2023-03-02T19:37:58.323Z,13.45
2023-03-02T19:39:59.739Z,14.50
2023-03-02T19:42:01.222Z,12.82
2023-03-02T19:44:02.694Z,14.27
2023-03-02T19:46:05.335Z,14.48
2023-03-02T19:48:07.617Z,13.40
2023-03-02T19:50:09.664Z,14.13
2023-03-02T19:52:11.050Z,13.93
2023-03-02T19:54:12.432Z,14.85
2023-03-02T19:56:15.049Z,14.50
2023-03-02T19:58:19.831Z,14.98
2023-03-02T20:00:22.547Z,14.15
2023-03-02T20:02:24.631Z,15.05
2023-03-02T20:04:26.228Z,14.80
2023-03-02T20:06:31.868Z,15.45
2023-03-02T20:08:33.270Z,14.18
2023-03-02T20:10:38.800Z,14.20
2023-03-02T20:12:40.198Z,14.60
2023-03-02T20:14:44.227Z,14.82
2023-03-02T20:16:45.605Z,14.85
2023-03-02T20:18:47.025Z,15.75
2023-03-02T20:20:48.613Z,15.15
2023-03-02T20:22:50.230Z,14.00
2023-03-02T20:24:51.754Z,14.90
2023-03-02T20:26:53.167Z,15.57
2023-03-02T20:28:56.684Z,15.75
2023-03-02T20:31:00.354Z,16.08
2023-03-02T20:33:03.274Z,16.33
2023-03-02T20:35:08.118Z,14.70
2023-03-02T20:37:11.973Z,15.75
2023-03-02T20:39:24.402Z,15.23
2023-03-02T20:41:26.293Z,15.77
2023-03-02T20:43:28.569Z,14.60
2023-03-02T20:45:30.322Z,15.60
2023-03-02T20:47:32.372Z,15.93
2023-03-02T20:49:34.505Z,16.40
2023-03-02T20:51:38.250Z,15.30
2023-03-02T20:53:39.726Z,16.92
2023-03-02T20:55:41.836Z,16.88
2023-03-02T20:57:43.233Z,16.40
2023-03-02T20:59:45.935Z,16.02
2023-03-02T21:01:47.473Z,16.63
2023-03-02T21:03:49.499Z,16.33
2023-03-02T21:05:51.044Z,17.00
2023-03-02T21:07:52.639Z,17.75
2023-03-02T21:09:53.999Z,19.00
2023-03-02T21:11:57.982Z,18.20
2023-03-02T21:14:01.560Z,17.30
2023-03-02T21:16:03.472Z,17.65
2023-03-02T21:18:05.331Z,20.15
2023-03-02T21:20:07.557Z,20.25
2023-03-02T21:22:09.291Z,17.65
2023-03-02T21:24:13.543Z,18.35
2023-03-02T21:26:16.465Z,19.42
2023-03-02T21:28:17.935Z,19.20
2023-03-02T21:30:22.898Z,19.38
2023-03-02T21:32:24.337Z,19.65
2023-03-02T21:34:25.779Z,19.13
2023-03-02T21:36:28.116Z,18.83
2023-03-02T21:38:29.543Z,18.95
2023-03-02T21:40:37.648Z,19.85
2023-03-02T21:42:39.294Z,20.27
2023-03-02T21:44:40.715Z,18.52
2023-03-02T21:46:42.508Z,19.20
2023-03-02T21:48:44.473Z,18.83
2023-03-02T21:50:46.090Z,18.50
2023-03-02T21:52:47.464Z,18.75
2023-03-02T21:54:48.915Z,19.42
2023-03-02T21:56:50.492Z,19.35
2023-03-02T21:58:54.776Z,18.10
2023-03-02T22:00:56.207Z,19.25
2023-03-02T22:02:58.425Z,18.45
2023-03-02T22:04:59.854Z,19.38
2023-03-02T22:07:01.239Z,18.73
2023-03-02T22:09:02.842Z,18.35
2023-03-02T22:11:04.389Z,18.92
2023-03-02T22:13:15.272Z,19.00
2023-03-02T22:15:16.818Z,18.20
2023-03-02T22:17:21.115Z,18.98
2023-03-02T22:19:25.744Z,20.40
2023-03-02T22:21:30.204Z,19.67
2023-03-02T22:23:31.593Z,19.23
2023-03-02T22:25:32.976Z,18.80
2023-03-02T22:27:35.245Z,19.45
2023-03-02T22:29:41.108Z,19.67
2023-03-02T22:31:46.927Z,20.90
2023-03-02T22:33:49.591Z,19.25
2023-03-02T22:36:02.425Z,20.30
2023-03-02T22:38:12.083Z,20.85
2023-03-02T22:40:37.963Z,18.17
2023-03-02T22:42:39.357Z,17.50
2023-03-02T22:44:40.946Z,19.65
2023-03-02T22:46:42.806Z,20.88
2023-03-02T22:48:49.664Z,19.77
2023-03-02T22:50:51.525Z,19.33
2023-03-02T22:52:54.618Z,19.90
2023-03-02T22:54:56.043Z,20.05
2023-03-02T22:56:57.572Z,19.70
2023-03-02T22:59:09.034Z,20.30
2023-03-02T23:01:29.392Z,19.67
2023-03-02T23:03:44.210Z,19.20
2023-03-02T23:05:49.068Z,19.50
2023-03-02T23:07:52.581Z,19.48
2023-03-02T23:09:53.962Z,18.08
2023-03-02T23:11:58.745Z,19.67
2023-03-02T23:14:01.734Z,19.75
2023-03-02T23:16:17.055Z,19.67
2023-03-02T23:18:30.094Z,19.48
2023-03-02T23:20:33.590Z,19.27
2023-03-02T23:22:35.688Z,19.55
2023-03-02T23:24:37.087Z,20.45
2023-03-02T23:26:38.481Z,18.88
2023-03-02T23:28:39.993Z,20.48
2023-03-02T23:30:41.366Z,20.13
2023-03-02T23:32:42.781Z,17.50
2023-03-02T23:34:44.395Z,18.17
2023-03-02T23:36:45.787Z,17.85
2023-03-02T23:38:48.482Z,18.17
2023-03-02T23:40:49.911Z,18.10
2023-03-02T23:42:51.352Z,18.33
2023-03-02T23:44:53.166Z,19.00
2023-03-02T23:46:54.570Z,17.77
2023-03-02T23:48:57.286Z,18.65
2023-03-02T23:50:58.693Z,17.92
2023-03-02T23:53:00.110Z,16.75
2023-03-02T23:55:01.522Z,18.65
2023-03-02T23:57:03.071Z,17.20
2023-03-02T23:59:05.081Z,16.65
